createdAt,value
2018-07-11T00:00:44.150Z,14.54
2018-07-11T00:03:12.458Z,14.28
2018-07-11T00:05:40.778Z,13.70
2018-07-11T00:08:09.071Z,13.10
2018-07-11T00:10:37.388Z,13.40
2018-07-11T00:13:05.694Z,13.96
2018-07-11T00:15:34.022Z,14.04
2018-07-11T00:18:02.320Z,13.60
2018-07-11T00:20:30.614Z,13.44
2018-07-11T00:22:58.930Z,13.04
2018-07-11T00:25:27.234Z,13.86
2018-07-11T00:27:55.555Z,12.00
2018-07-11T00:30:23.854Z,13.32
2018-07-11T00:32:52.170Z,14.18
2018-07-11T00:35:20.470Z,12.06
2018-07-11T00:37:48.781Z,12.80
2018-07-11T00:40:17.078Z,13.12
2018-07-11T00:42:45.398Z,12.92
2018-07-11T00:45:13.698Z,12.78
2018-07-11T00:47:42.025Z,11.86
2018-07-11T00:50:10.326Z,13.34
2018-07-11T00:52:38.643Z,12.38
2018-07-11T00:55:06.935Z,13.04
2018-07-11T00:57:35.259Z,14.54
2018-07-11T01:00:03.559Z,12.70
2018-07-11T01:02:31.869Z,11.94
2018-07-11T01:04:59.396Z,12.48
2018-07-11T01:07:27.711Z,14.36
2018-07-11T01:09:56.002Z,13.00
2018-07-11T01:12:24.322Z,11.10
2018-07-11T01:14:52.619Z,11.34
2018-07-11T01:17:20.935Z,11.80
2018-07-11T01:19:49.226Z,12.02
2018-07-11T01:22:17.545Z,12.02
2018-07-11T01:24:45.841Z,11.12
2018-07-11T01:27:14.159Z,13.00
2018-07-11T01:29:42.454Z,20.86
2018-07-11T01:32:10.783Z,24.52
2018-07-11T01:34:39.086Z,33.44
2018-07-11T01:37:07.402Z,36.86
2018-07-11T01:39:35.700Z,37.64
2018-07-11T01:42:04.018Z,25.36
2018-07-11T01:44:31.546Z,17.44
2018-07-11T01:46:59.871Z,27.12
2018-07-11T01:49:28.167Z,15.38
2018-07-11T01:55:06.230Z,40.75
2018-07-11T01:57:34.551Z,25.08
2018-07-11T02:00:02.850Z,26.12
2018-07-11T02:02:31.162Z,18.82
2018-07-11T02:04:59.463Z,17.20
2018-07-11T02:07:27.782Z,17.92
2018-07-11T02:09:56.074Z,16.94
2018-07-11T02:12:24.406Z,15.90
2018-07-11T02:14:52.707Z,14.92
2018-07-11T02:17:21.031Z,19.32
2018-07-11T02:19:49.330Z,12.62
2018-07-11T02:22:17.648Z,17.04
2018-07-11T02:24:45.946Z,20.14
2018-07-11T02:27:14.266Z,16.24
2018-07-11T02:29:42.570Z,15.80
2018-07-11T02:32:10.887Z,13.70
2018-07-11T02:34:39.198Z,13.18
2018-07-11T02:37:07.523Z,12.16
2018-07-11T02:39:35.821Z,13.08
2018-07-11T02:42:04.139Z,13.72
2018-07-11T02:44:32.434Z,12.22
2018-07-11T02:47:00.751Z,12.22
2018-07-11T02:49:29.058Z,12.58
2018-07-11T02:51:57.362Z,13.14
2018-07-11T02:54:25.685Z,12.32
2018-07-11T02:56:53.984Z,12.26
2018-07-11T02:59:22.315Z,11.78
2018-07-11T03:01:50.617Z,12.14
2018-07-11T03:04:18.938Z,11.02
2018-07-11T03:06:47.243Z,12.78
2018-07-11T03:09:15.570Z,11.98
2018-07-11T03:11:43.865Z,11.80
2018-07-11T03:14:12.186Z,11.90
2018-07-11T03:16:40.478Z,12.80
2018-07-11T03:19:08.798Z,11.82
2018-07-11T03:21:37.101Z,11.88
2018-07-11T03:24:05.419Z,12.38
2018-07-11T03:26:32.945Z,11.04
2018-07-11T03:29:01.262Z,11.56
2018-07-11T03:31:29.567Z,11.34
2018-07-11T03:33:57.882Z,12.22
2018-07-11T03:36:26.175Z,11.82
2018-07-11T03:38:54.490Z,11.64
2018-07-11T03:41:22.786Z,13.18
2018-07-11T03:43:51.105Z,12.92
2018-07-11T03:46:19.398Z,12.78
2018-07-11T03:48:47.714Z,12.68
2018-07-11T03:51:16.010Z,13.44
2018-07-11T03:53:44.387Z,12.90
2018-07-11T03:56:12.654Z,13.02
2018-07-11T03:58:40.966Z,13.32
2018-07-11T04:01:09.266Z,13.62
2018-07-11T04:03:37.587Z,13.50
2018-07-11T04:06:05.878Z,14.34
2018-07-11T04:08:34.198Z,13.70
2018-07-11T04:11:02.497Z,13.18
2018-07-11T04:13:30.814Z,13.98
2018-07-11T04:15:59.114Z,13.18
2018-07-11T04:18:27.444Z,13.62
2018-07-11T04:20:55.742Z,13.88
2018-07-11T04:23:24.061Z,14.38
2018-07-11T04:25:52.357Z,14.86
2018-07-11T04:28:20.674Z,14.30
2018-07-11T04:30:48.979Z,14.74
2018-07-11T04:33:17.321Z,15.10
2018-07-11T04:35:45.616Z,13.68
2018-07-11T04:38:13.937Z,14.54
2018-07-11T04:40:42.233Z,15.62
2018-07-11T04:43:10.550Z,15.10
2018-07-11T04:45:38.845Z,13.30
2018-07-11T04:48:07.167Z,13.60
2018-07-11T04:50:35.498Z,15.34
2018-07-11T04:53:03.811Z,14.42
2018-07-11T04:55:32.129Z,15.88
2018-07-11T04:58:00.430Z,13.50
2018-07-11T05:00:28.763Z,14.94
2018-07-11T05:02:57.069Z,15.32
2018-07-11T05:05:25.388Z,15.32
2018-07-11T05:07:53.685Z,16.26
2018-07-11T05:10:22.008Z,15.58
2018-07-11T05:12:50.307Z,13.88
2018-07-11T05:15:18.631Z,15.02
2018-07-11T05:17:46.936Z,17.10
2018-07-11T05:20:15.258Z,16.04
2018-07-11T05:22:43.555Z,15.80
2018-07-11T05:25:11.877Z,15.92
2018-07-11T05:27:40.195Z,15.04
2018-07-11T05:30:08.522Z,14.58
2018-07-11T05:32:36.826Z,13.44
2018-07-11T05:35:05.137Z,14.94
2018-07-11T05:37:33.442Z,14.72
2018-07-11T05:40:01.763Z,17.02
2018-07-11T05:42:30.104Z,21.76
2018-07-11T05:44:58.400Z,28.10
2018-07-11T05:47:26.706Z,25.94
2018-07-11T05:49:55.019Z,24.76
2018-07-11T05:52:23.323Z,30.10
2018-07-11T05:54:51.646Z,27.22
2018-07-11T05:57:19.938Z,30.02
2018-07-11T05:59:48.266Z,27.44
2018-07-11T06:02:16.570Z,27.90
2018-07-11T06:04:44.896Z,28.56
2018-07-11T06:07:13.194Z,25.96
2018-07-11T06:09:41.514Z,26.46
2018-07-11T06:12:09.814Z,22.10
2018-07-11T06:14:38.148Z,25.32
2018-07-11T06:17:06.448Z,25.04
2018-07-11T06:19:34.761Z,23.90
2018-07-11T06:22:03.088Z,21.88
2018-07-11T06:24:31.415Z,22.78
2018-07-11T06:26:59.714Z,22.58
2018-07-11T06:29:28.034Z,23.68
2018-07-11T06:31:56.332Z,20.78
2018-07-11T06:34:24.642Z,23.56
2018-07-11T06:36:52.942Z,22.36
2018-07-11T06:39:21.306Z,25.08
2018-07-11T06:41:49.583Z,23.42
2018-07-11T06:44:17.906Z,24.90
2018-07-11T06:46:46.209Z,24.26
2018-07-11T06:49:13.734Z,23.58
2018-07-11T06:51:42.060Z,24.00
2018-07-11T06:54:09.586Z,23.30
2018-07-11T06:56:37.897Z,22.88
2018-07-11T06:59:06.193Z,22.72
2018-07-11T07:01:34.511Z,21.76
2018-07-11T07:04:02.809Z,22.26
2018-07-11T07:06:31.121Z,22.16
2018-07-11T07:08:59.418Z,19.38
2018-07-11T07:11:27.745Z,21.56
2018-07-11T07:13:56.051Z,22.18
2018-07-11T07:16:24.401Z,21.54
2018-07-11T07:18:52.691Z,23.28
2018-07-11T07:21:21.001Z,22.22
2018-07-11T07:23:49.294Z,22.88
2018-07-11T07:26:17.605Z,24.14
2018-07-11T07:28:45.902Z,23.54
2018-07-11T07:31:14.226Z,31.88
2018-07-11T07:33:42.531Z,25.72
2018-07-11T07:36:10.868Z,25.80
2018-07-11T07:38:39.159Z,26.10
2018-07-11T07:41:07.474Z,22.36
2018-07-11T07:43:35.769Z,25.08
2018-07-11T07:46:04.086Z,25.58
2018-07-11T07:48:32.387Z,22.74
2018-07-11T07:51:00.697Z,23.44
2018-07-11T07:53:28.994Z,20.56
2018-07-11T07:55:57.319Z,21.50
2018-07-11T07:58:25.627Z,22.18
2018-07-11T08:00:53.947Z,20.60
2018-07-11T08:03:22.246Z,19.92
2018-07-11T08:05:50.565Z,19.98
2018-07-11T08:08:18.864Z,19.22
2018-07-11T08:10:47.178Z,17.10
2018-07-11T08:13:15.471Z,19.10
2018-07-11T08:15:43.792Z,14.92
2018-07-11T08:18:12.082Z,14.78
2018-07-11T08:20:40.398Z,15.80
2018-07-11T08:23:20.454Z,14.54
2018-07-11T08:26:11.567Z,15.28
2018-07-11T08:28:39.862Z,15.78
2018-07-11T08:31:08.179Z,15.10
2018-07-11T08:33:36.478Z,14.46
2018-07-11T08:36:04.795Z,12.88
2018-07-11T08:38:33.091Z,14.68
2018-07-11T08:41:01.410Z,13.00
2018-07-11T08:43:29.702Z,13.96
2018-07-11T08:45:58.020Z,15.86
2018-07-11T08:48:26.311Z,13.22
2018-07-11T08:50:54.631Z,14.42
2018-07-11T08:53:22.923Z,14.78
2018-07-11T08:55:50.476Z,11.50
2018-07-11T08:58:18.766Z,13.02
2018-07-11T09:00:47.082Z,13.74
2018-07-11T09:03:15.378Z,12.36
2018-07-11T09:05:43.705Z,12.08
2018-07-11T09:08:12.002Z,13.28
2018-07-11T09:10:40.400Z,11.52
2018-07-11T09:13:08.634Z,11.98
2018-07-11T09:15:36.922Z,12.70
2018-07-11T09:18:05.234Z,12.40
2018-07-11T09:20:33.531Z,10.88
2018-07-11T09:23:01.843Z,11.16
2018-07-11T09:25:30.136Z,10.54
2018-07-11T09:27:58.448Z,11.48
2018-07-11T09:30:26.779Z,11.02
2018-07-11T09:32:55.082Z,10.78
2018-07-11T09:35:23.391Z,10.66
2018-07-11T09:37:51.706Z,10.04
2018-07-11T09:40:20.010Z,10.42
2018-07-11T09:42:48.322Z,11.18
2018-07-11T09:45:16.630Z,10.26
2018-07-11T09:47:44.948Z,10.98
2018-07-11T09:50:13.242Z,10.84
2018-07-11T09:52:41.556Z,11.90
2018-07-11T09:55:09.849Z,11.00
2018-07-11T09:57:38.193Z,11.48
2018-07-11T10:00:06.486Z,12.30
2018-07-11T10:02:34.805Z,11.40
2018-07-11T10:05:03.132Z,11.64
2018-07-11T10:07:31.820Z,11.20
2018-07-11T10:10:00.119Z,11.18
2018-07-11T10:12:28.451Z,10.96
2018-07-11T10:14:56.754Z,13.12
2018-07-11T10:17:25.077Z,12.56
2018-07-11T10:19:53.375Z,12.50
2018-07-11T10:22:21.694Z,12.34
2018-07-11T10:24:49.988Z,12.52
2018-07-11T10:27:18.305Z,13.02
2018-07-11T10:29:46.610Z,12.76
2018-07-11T10:32:14.934Z,11.76
2018-07-11T10:34:43.226Z,10.84
2018-07-11T10:37:11.542Z,10.58
2018-07-11T10:39:39.838Z,11.96
2018-07-11T10:42:08.155Z,11.88
2018-07-11T10:44:36.458Z,11.74
2018-07-11T10:47:04.775Z,12.00
2018-07-11T10:49:33.073Z,11.80
2018-07-11T10:52:01.387Z,12.32
2018-07-11T10:54:29.695Z,11.68
2018-07-11T10:56:58.083Z,11.98
2018-07-11T10:59:26.341Z,11.46
2018-07-11T11:01:54.661Z,11.78
2018-07-11T11:04:22.965Z,11.70
2018-07-11T11:06:51.287Z,12.00
2018-07-11T11:09:19.577Z,13.78
2018-07-11T11:11:47.907Z,12.84
2018-07-11T11:14:16.207Z,12.10
2018-07-11T11:16:44.504Z,13.46
2018-07-11T11:19:12.819Z,12.80
2018-07-11T11:21:41.115Z,12.34
2018-07-11T11:24:08.670Z,12.66
2018-07-11T11:26:36.972Z,12.38
2018-07-11T11:29:05.298Z,13.46
2018-07-11T11:31:33.599Z,11.92
2018-07-11T11:34:01.920Z,11.40
2018-07-11T11:36:30.209Z,11.56
2018-07-11T11:38:58.521Z,12.48
2018-07-11T11:41:26.830Z,11.92
2018-07-11T11:43:55.156Z,10.74
2018-07-11T11:46:23.449Z,11.56
2018-07-11T11:48:51.762Z,11.18
2018-07-11T11:51:20.055Z,10.50
2018-07-11T11:53:48.370Z,10.16
2018-07-11T11:56:16.662Z,9.58
2018-07-11T11:58:44.981Z,9.98
2018-07-11T12:01:13.274Z,9.84
2018-07-11T12:03:41.588Z,9.32
2018-07-11T12:06:09.886Z,10.00
2018-07-11T12:08:38.206Z,9.50
2018-07-11T12:11:06.498Z,8.70
2018-07-11T12:13:34.817Z,7.90
2018-07-11T12:16:03.115Z,7.18
2018-07-11T12:18:31.429Z,8.20
2018-07-11T12:20:59.721Z,7.08
2018-07-11T12:23:28.026Z,7.52
2018-07-11T12:25:56.323Z,7.86
2018-07-11T12:28:24.633Z,8.18
2018-07-11T12:30:52.923Z,7.38
2018-07-11T12:33:21.241Z,6.86
2018-07-11T12:35:49.554Z,7.54
2018-07-11T12:38:17.126Z,6.84
2018-07-11T12:40:45.414Z,6.40
2018-07-11T12:43:13.733Z,6.94
2018-07-11T12:45:42.023Z,6.30
2018-07-11T12:48:09.581Z,6.36
2018-07-11T12:50:37.869Z,6.30
2018-07-11T12:53:06.181Z,5.88
2018-07-11T12:55:34.665Z,5.66
2018-07-11T12:58:02.959Z,5.86
2018-07-11T13:00:31.270Z,5.16
2018-07-11T13:02:59.566Z,5.28
2018-07-11T13:05:27.887Z,5.72
2018-07-11T13:07:56.175Z,5.86
2018-07-11T13:10:24.487Z,5.76
2018-07-11T13:12:52.790Z,6.02
2018-07-11T13:15:21.107Z,5.80
2018-07-11T13:17:49.402Z,5.24
2018-07-11T13:20:17.716Z,5.60
2018-07-11T13:22:46.015Z,6.50
2018-07-11T13:25:14.396Z,5.78
2018-07-11T13:27:42.692Z,4.90
2018-07-11T13:30:10.998Z,5.84
2018-07-11T13:32:39.295Z,6.32
2018-07-11T13:35:07.610Z,4.98
2018-07-11T13:37:35.907Z,5.74
2018-07-11T13:40:04.226Z,4.46
2018-07-11T13:42:32.566Z,5.98
2018-07-11T13:45:00.884Z,5.42
2018-07-11T13:47:29.174Z,5.10
2018-07-11T13:49:57.490Z,4.80
2018-07-11T13:52:25.782Z,4.92
2018-07-11T13:54:54.097Z,5.06
2018-07-11T13:57:21.618Z,4.30
2018-07-11T13:59:49.930Z,3.98
2018-07-11T14:02:18.214Z,4.48
2018-07-11T14:04:46.526Z,3.86
2018-07-11T14:07:14.828Z,4.10
2018-07-11T14:09:43.141Z,4.40
2018-07-11T14:12:11.431Z,3.96
2018-07-11T14:14:39.752Z,4.16
2018-07-11T14:17:08.043Z,4.26
2018-07-11T14:19:36.358Z,4.12
2018-07-11T14:22:04.652Z,4.32
2018-07-11T14:24:32.190Z,5.08
2018-07-11T14:27:00.490Z,5.08
2018-07-11T14:29:28.809Z,4.00
2018-07-11T14:31:57.102Z,4.10
2018-07-11T14:34:25.418Z,4.74
2018-07-11T14:36:53.715Z,4.22
2018-07-11T14:39:22.026Z,4.30
2018-07-11T14:41:50.318Z,4.44
2018-07-11T14:44:18.650Z,5.20
2018-07-11T14:46:46.946Z,4.54
2018-07-11T14:49:15.256Z,4.62
2018-07-11T14:51:43.546Z,4.98
2018-07-11T14:54:11.883Z,4.60
2018-07-11T14:56:40.199Z,5.34
2018-07-11T14:59:08.490Z,5.08
2018-07-11T15:01:36.840Z,4.46
2018-07-11T15:04:05.142Z,4.66
2018-07-11T15:06:33.466Z,4.24
2018-07-11T15:09:01.941Z,5.00
2018-07-11T15:11:30.088Z,5.02
2018-07-11T15:13:58.380Z,5.20
2018-07-11T15:16:25.927Z,4.62
2018-07-11T15:18:54.221Z,4.14
2018-07-11T15:21:22.537Z,4.28
2018-07-11T15:23:50.831Z,4.78
2018-07-11T15:26:19.139Z,4.28
2018-07-11T15:28:47.425Z,4.66
2018-07-11T15:31:15.741Z,4.24
2018-07-11T15:33:44.040Z,4.94
2018-07-11T15:36:12.369Z,4.84
2018-07-11T15:38:39.899Z,5.24
2018-07-11T15:41:08.211Z,4.48
2018-07-11T15:43:36.507Z,5.46
2018-07-11T15:46:04.832Z,5.26
2018-07-11T15:48:32.358Z,8.70
2018-07-11T15:51:00.684Z,4.38
2018-07-11T15:53:28.999Z,4.36
2018-07-11T15:55:57.306Z,5.22
2018-07-11T15:58:25.603Z,6.52
2018-07-11T16:00:53.907Z,5.04
2018-07-11T16:03:22.198Z,4.26
2018-07-11T16:05:50.596Z,6.48
2018-07-11T16:08:18.819Z,5.12
2018-07-11T16:10:47.131Z,6.20
2018-07-11T16:13:15.427Z,5.68
2018-07-11T16:15:43.755Z,5.62
2018-07-11T16:18:12.066Z,6.12
2018-07-11T16:20:40.381Z,4.62
2018-07-11T16:23:08.684Z,6.96
2018-07-11T16:25:36.997Z,6.04
2018-07-11T16:28:05.294Z,4.20
2018-07-11T16:30:33.611Z,4.40
2018-07-11T16:33:01.908Z,4.86
2018-07-11T16:35:30.248Z,4.40
2018-07-11T16:37:58.546Z,4.24
2018-07-11T16:40:26.863Z,4.62
2018-07-11T16:42:55.161Z,5.38
2018-07-11T16:45:23.466Z,4.68
2018-07-11T16:47:51.752Z,4.18
2018-07-11T16:50:20.037Z,4.76
2018-07-11T16:52:48.494Z,4.86
2018-07-11T16:55:17.023Z,4.54
2018-07-11T16:57:45.331Z,4.44
2018-07-11T17:00:13.626Z,3.98
2018-07-11T17:02:41.948Z,3.78
2018-07-11T17:05:10.246Z,6.60
2018-07-11T17:07:38.558Z,4.12
2018-07-11T17:10:06.853Z,4.20
2018-07-11T17:12:35.166Z,4.12
2018-07-11T17:15:03.454Z,4.02
2018-07-11T17:17:31.770Z,4.34
2018-07-11T17:20:00.060Z,3.98
2018-07-11T17:22:28.378Z,3.72
2018-07-11T17:24:56.683Z,4.68
2018-07-11T17:27:25.005Z,4.38
2018-07-11T17:29:53.299Z,4.60
2018-07-11T17:32:21.606Z,4.40
2018-07-11T17:34:49.893Z,4.32
2018-07-11T17:37:18.245Z,4.00
2018-07-11T17:39:46.523Z,5.06
2018-07-11T17:42:14.842Z,4.68
2018-07-11T17:44:43.130Z,6.46
2018-07-11T17:47:11.450Z,5.10
2018-07-11T17:49:39.743Z,4.34
2018-07-11T17:52:08.058Z,4.62
2018-07-11T17:54:36.349Z,4.56
2018-07-11T17:57:04.662Z,4.96
2018-07-11T17:59:32.961Z,4.80
2018-07-11T18:02:01.291Z,4.72
2018-07-11T18:04:28.818Z,4.88
2018-07-11T18:06:57.126Z,5.20
2018-07-11T18:09:25.415Z,4.94
2018-07-11T18:11:53.738Z,5.40
2018-07-11T18:14:22.058Z,5.32
2018-07-11T18:16:50.366Z,4.84
2018-07-11T18:19:18.655Z,5.40
2018-07-11T18:21:46.971Z,4.74
2018-07-11T18:24:15.263Z,5.20
2018-07-11T18:26:43.570Z,5.30
2018-07-11T18:29:11.859Z,6.68
2018-07-11T18:31:40.170Z,5.30
2018-07-11T18:34:08.453Z,6.94
2018-07-11T18:36:36.767Z,6.12
2018-07-11T18:39:05.062Z,6.70
2018-07-11T18:41:33.384Z,6.40
2018-07-11T18:44:01.686Z,6.38
2018-07-11T18:46:30.013Z,5.98
2018-07-11T18:48:58.308Z,7.10
2018-07-11T18:51:26.606Z,5.82
2018-07-11T18:53:54.922Z,6.28
2018-07-11T18:56:23.225Z,5.76
2018-07-11T18:58:51.551Z,6.30
2018-07-11T19:01:19.840Z,5.52
2018-07-11T19:03:48.149Z,6.06
2018-07-11T19:06:16.713Z,5.80
2018-07-11T19:08:44.770Z,7.48
2018-07-11T19:11:13.059Z,6.08
2018-07-11T19:13:41.371Z,5.92
2018-07-11T19:16:09.672Z,6.66
2018-07-11T19:18:37.991Z,6.38
2018-07-11T19:21:06.275Z,6.10
2018-07-11T19:23:34.602Z,13.60
2018-07-11T19:26:02.136Z,19.78
2018-07-11T19:28:30.454Z,23.60
2018-07-11T19:30:58.792Z,7.90
2018-07-11T19:33:27.078Z,7.32
2018-07-11T19:35:55.375Z,7.36
2018-07-11T19:38:23.694Z,6.44
2018-07-11T19:40:51.998Z,23.86
2018-07-11T19:43:20.314Z,9.38
2018-07-11T19:45:48.616Z,12.24
2018-07-11T19:48:16.943Z,10.06
2018-07-11T19:50:45.234Z,9.00
2018-07-11T19:53:13.550Z,9.42
2018-07-11T19:55:41.851Z,10.02
2018-07-11T19:58:10.166Z,10.06
2018-07-11T20:00:38.458Z,24.84
2018-07-11T20:03:06.780Z,12.22
2018-07-11T20:05:35.080Z,11.10
2018-07-11T20:08:03.401Z,10.74
2018-07-11T20:10:31.695Z,11.78
2018-07-11T20:13:00.017Z,7.70
2018-07-11T20:15:28.338Z,9.90
2018-07-11T20:17:56.655Z,10.10
2018-07-11T20:20:24.951Z,19.34
2018-07-11T20:22:53.298Z,19.38
2018-07-11T20:25:20.813Z,14.14
2018-07-11T20:27:49.134Z,13.10
2018-07-11T20:30:17.430Z,9.56
2018-07-11T20:32:45.747Z,9.60
2018-07-11T20:35:14.047Z,27.86
2018-07-11T20:37:42.366Z,14.68
2018-07-11T20:40:10.663Z,14.10
2018-07-11T20:42:38.983Z,10.46
2018-07-11T20:45:07.279Z,10.40
2018-07-11T20:47:34.834Z,9.02
2018-07-11T20:50:03.134Z,10.12
2018-07-11T20:52:31.426Z,9.48
2018-07-11T20:54:59.741Z,9.24
2018-07-11T20:57:28.036Z,9.70
2018-07-11T21:00:08.326Z,9.50
2018-07-11T21:02:48.535Z,8.10
2018-07-11T21:05:16.059Z,9.96
2018-07-11T21:07:44.399Z,9.84
2018-07-11T21:10:12.691Z,9.18
2018-07-11T21:12:40.987Z,8.88
2018-07-11T21:15:08.530Z,9.24
2018-07-11T21:17:36.056Z,9.92
2018-07-11T21:20:04.374Z,9.80
2018-07-11T21:22:32.661Z,9.38
2018-07-11T21:25:00.969Z,10.90
2018-07-11T21:27:29.271Z,10.62
2018-07-11T21:29:57.586Z,10.48
2018-07-11T21:32:25.878Z,9.10
2018-07-11T21:34:54.189Z,10.74
2018-07-11T21:37:22.483Z,11.00
2018-07-11T21:39:50.797Z,11.26
2018-07-11T21:42:19.102Z,9.86
2018-07-11T21:44:47.423Z,10.40
2018-07-11T21:47:15.718Z,10.00
2018-07-11T21:49:44.029Z,9.66
2018-07-11T21:52:12.322Z,11.00
2018-07-11T21:54:40.638Z,11.12
2018-07-11T21:57:08.939Z,10.52
2018-07-11T21:59:37.246Z,9.90
2018-07-11T22:02:05.548Z,10.00
2018-07-11T22:04:33.867Z,10.02
2018-07-11T22:07:02.166Z,9.56
2018-07-11T22:09:30.486Z,9.40
2018-07-11T22:11:58.783Z,10.06
2018-07-11T22:14:27.126Z,9.46
2018-07-11T22:16:55.418Z,10.20
2018-07-11T22:19:23.743Z,12.58
2018-07-11T22:21:51.545Z,10.54
2018-07-11T22:24:19.374Z,13.52
2018-07-11T22:26:47.178Z,10.74
2018-07-11T22:29:15.009Z,16.34
2018-07-11T22:31:42.823Z,16.76
2018-07-11T22:34:10.650Z,16.56
2018-07-11T22:36:38.458Z,12.32
2018-07-11T22:39:06.278Z,14.26
2018-07-11T22:41:34.084Z,13.18
2018-07-11T22:44:01.911Z,18.98
2018-07-11T22:46:29.732Z,15.78
2018-07-11T22:48:57.558Z,13.68
2018-07-11T22:51:25.362Z,16.06
2018-07-11T22:53:53.195Z,19.36
2018-07-11T22:56:20.993Z,13.14
2018-07-11T22:58:48.795Z,15.52
2018-07-11T23:01:16.617Z,23.48
2018-07-11T23:03:43.650Z,20.56
2018-07-11T23:06:10.710Z,13.02
2018-07-11T23:08:38.515Z,20.24
2018-07-11T23:11:06.343Z,17.54
2018-07-11T23:13:34.145Z,11.42
2018-07-11T23:16:01.973Z,10.68
2018-07-11T23:18:29.778Z,10.06
2018-07-11T23:20:57.605Z,14.00
2018-07-11T23:23:25.410Z,11.30
2018-07-11T23:25:53.230Z,9.94
2018-07-11T23:28:21.042Z,10.26
2018-07-11T23:30:48.875Z,10.18
2018-07-11T23:33:16.678Z,10.22
2018-07-11T23:35:44.499Z,10.08
2018-07-11T23:38:12.307Z,9.40
2018-07-11T23:40:40.130Z,11.24
2018-07-11T23:43:07.930Z,11.44
2018-07-11T23:45:35.755Z,11.72
2018-07-11T23:48:03.561Z,13.10
2018-07-11T23:50:31.387Z,14.26
2018-07-11T23:52:59.185Z,15.56
2018-07-11T23:55:27.015Z,14.12
2018-07-11T23:57:54.820Z,14.52
